Time;durP1;ratioP1;P1;durP2;ratioP2;P2;SDS_P1;SDS_P2;PMS_P1;PMS_P2;Temp;Humidity;BMP_temperature;BMP_pressure;BME280_temperature;BME280_humidity;BME280_pressure;Samples;Min_cycle;Max_cycle;Signal;HPM_P1;HPM_P2
2022/01/06 00:01:58;;;;;;;19.60;13.32;;;;;;;3.67;78.73;99335.34;1786111;80;21513;-78
2022/01/06 00:04:25;;;;;;;19.00;14.10;;;;;;;3.73;78.76;99336.81;1786149;80;21023;-78
2022/01/06 00:06:51;;;;;;;20.20;12.85;;;;;;;3.79;78.75;99332.20;1786098;79;22274;-79
2022/01/06 00:09:19;;;;;;;17.62;10.18;;;;;;;3.81;78.62;99334.44;1786029;78;21739;-78
2022/01/06 00:11:46;;;;;;;15.32;8.15;;;;;;;3.81;78.54;99326.62;1786233;78;21027;-78
2022/01/06 00:14:20;;;;;;;11.65;8.90;;;;;;;3.80;78.50;99323.58;1786352;78;21074;-78
2022/01/06 00:16:58;;;;;;;13.05;8.60;;;;;;;3.79;78.33;99322.70;1785621;78;21058;-79
2022/01/06 00:24:26;;;;;;;13.22;9.10;;;;;;;3.51;78.27;99319.70;1786648;80;21036;-79
2022/01/06 00:26:53;;;;;;;16.52;12.00;;;;;;;3.45;78.43;99323.40;1786630;78;21054;-78
2022/01/06 00:29:20;;;;;;;13.13;10.90;;;;;;;3.46;78.63;99332.55;1786419;80;21138;-79
2022/01/06 00:31:47;;;;;;;12.43;8.85;;;;;;;3.47;78.64;99326.53;1786149;78;21058;-78
2022/01/06 00:34:13;;;;;;;11.08;8.15;;;;;;;3.48;78.69;99326.10;1786357;80;21780;-78
2022/01/06 00:36:41;;;;;;;12.35;5.95;;;;;;;3.49;78.67;99327.85;1766037;78;21117;-78
2022/01/06 00:39:08;;;;;;;11.33;6.90;;;;;;;3.49;78.74;99327.45;1786482;79;22014;-78
2022/01/06 00:41:36;;;;;;;13.62;10.40;;;;;;;3.54;78.73;99330.61;1786506;79;21572;-78
2022/01/06 00:44:04;;;;;;;10.65;6.60;;;;;;;3.55;78.66;99328.45;1786270;79;21046;-79
2022/01/06 00:46:32;;;;;;;11.80;6.03;;;;;;;3.54;78.60;99324.98;1786044;79;21708;-79
2022/01/06 00:48:58;;;;;;;7.62;6.12;;;;;;;3.53;78.55;99328.83;1786101;79;21540;-79
2022/01/06 00:51:25;;;;;;;5.87;4.85;;;;;;;3.50;78.44;99326.60;1786113;78;21559;-78
2022/01/06 00:53:52;;;;;;;7.42;5.20;;;;;;;3.44;78.29;99332.93;1786169;78;21062;-79
2022/01/06 00:56:18;;;;;;;8.93;5.12;;;;;;;3.37;78.21;99339.20;1786285;80;21066;-79
2022/01/06 00:58:48;;;;;;;6.87;4.90;;;;;;;3.29;78.21;99342.86;1786307;78;21152;-79
2022/01/06 01:01:14;;;;;;;8.43;5.22;;;;;;;3.23;78.28;99338.36;1786649;78;21051;-79
2022/01/06 01:03:41;;;;;;;7.55;5.30;;;;;;;3.21;78.35;99349.12;1786428;79;21130;-79
2022/01/06 01:06:08;;;;;;;9.03;4.90;;;;;;;3.18;78.41;99350.31;1786410;78;21083;-79
2022/01/06 01:08:35;;;;;;;7.53;4.47;;;;;;;3.16;78.44;99355.02;1785769;78;21073;-79
2022/01/06 01:11:01;;;;;;;7.15;4.60;;;;;;;3.15;78.50;99357.13;1786166;78;21719;-78
2022/01/06 01:13:30;;;;;;;7.75;4.80;;;;;;;3.13;78.48;99356.20;1786180;79;21434;-79
2022/01/06 01:16:05;;;;;;;8.28;4.53;;;;;;;3.11;78.54;99350.52;1786108;78;21686;-78
2022/01/06 01:18:27;;;;;;;8.43;4.65;;;;;;;3.10;78.60;99357.88;1785396;80;21587;-78
2022/01/06 01:20:54;;;;;;;7.15;4.15;;;;;;;3.15;78.75;99357.13;1786414;78;21734;-78
2022/01/06 01:23:21;;;;;;;8.05;4.97;;;;;;;3.16;78.80;99366.29;1786227;78;21759;-78
2022/01/06 01:25:47;;;;;;;6.92;4.30;;;;;;;3.22;78.91;99361.70;1786231;78;21058;-79
2022/01/06 01:28:15;;;;;;;7.53;4.70;;;;;;;3.29;78.95;99367.14;1786152;78;21038;-79
2022/01/06 01:31:11;;;;;;;7.75;4.83;;;;;;;3.36;78.94;99360.83;1788034;78;21042;-79
2022/01/06 01:33:20;;;;;;;7.47;4.72;;;;;;;3.42;78.90;99360.61;1788969;78;21141;-79
2022/01/06 01:35:46;;;;;;;7.55;4.95;;;;;;;3.48;78.90;99358.20;1791992;79;22634;-79
2022/01/06 01:38:13;;;;;;;6.62;4.65;;;;;;;3.55;78.83;99361.88;1791872;79;21066;-79
2022/01/06 01:40:40;;;;;;;8.05;5.00;;;;;;;3.58;78.74;99363.68;1791894;78;21066;-79
2022/01/06 01:43:06;;;;;;;8.28;4.65;;;;;;;3.59;78.64;99364.16;1791974;78;21551;-79
2022/01/06 01:45:34;;;;;;;5.55;4.08;;;;;;;3.59;78.60;99370.24;1752529;80;21064;-78
2022/01/06 01:48:06;;;;;;;4.78;3.50;;;;;;;3.60;78.59;99369.39;1792145;78;21780;-79
2022/01/06 01:50:32;;;;;;;8.33;4.33;;;;;;;3.60;78.60;99372.41;1791758;78;21073;-80
2022/01/06 01:52:58;;;;;;;5.85;4.28;;;;;;;3.58;78.45;99376.69;1791831;78;21050;-79
2022/01/06 01:55:32;;;;;;;7.65;4.00;;;;;;;3.57;78.45;99380.14;1792005;80;21028;-79
2022/01/06 01:57:56;;;;;;;5.42;3.50;;;;;;;3.52;78.40;99378.69;1751530;80;21115;-79
2022/01/06 02:00:30;;;;;;;6.70;4.03;;;;;;;3.47;78.40;99381.16;1792288;80;21361;-79
2022/01/06 02:02:55;;;;;;;5.72;4.05;;;;;;;3.43;78.40;99389.67;1791908;78;21069;-79
2022/01/06 02:05:28;;;;;;;5.37;4.20;;;;;;;3.43;78.58;99399.20;1723636;81;21053;-78
2022/01/06 02:07:58;;;;;;;6.37;4.30;;;;;;;3.46;78.79;99400.61;1792426;80;21419;-78
2022/01/06 02:10:25;;;;;;;4.85;3.65;;;;;;;3.50;78.97;99403.34;1792419;78;21081;-80
2022/01/06 02:12:55;;;;;;;4.47;3.45;;;;;;;3.54;79.07;99405.63;1751557;81;21349;-79
2022/01/06 02:15:22;;;;;;;5.40;3.42;;;;;;;3.59;79.15;99408.39;1792112;80;21495;-79
2022/01/06 02:17:50;;;;;;;4.35;3.62;;;;;;;3.59;79.16;99414.90;1792150;79;21256;-79
2022/01/06 02:20:19;;;;;;;6.50;3.17;;;;;;;3.60;79.18;99421.85;1792179;79;22159;-79
2022/01/06 02:22:45;;;;;;;5.08;3.40;;;;;;;3.59;79.19;99425.31;1792406;78;21607;-79
2022/01/06 02:25:32;;;;;;;5.95;3.95;;;;;;;3.56;79.17;99428.67;1792105;79;21765;-79
2022/01/06 02:28:05;;;;;;;4.95;3.83;;;;;;;3.53;79.23;99434.20;1792301;78;21552;-79
2022/01/06 02:30:28;;;;;;;6.03;3.83;;;;;;;3.53;79.36;99437.70;1791229;79;21038;-79
2022/01/06 02:32:55;;;;;;;5.97;3.77;;;;;;;3.53;79.39;99442.91;1792436;80;21077;-79
2022/01/06 02:35:23;;;;;;;4.30;3.55;;;;;;;3.53;79.50;99447.20;1792231;79;21125;-79
2022/01/06 02:37:49;;;;;;;4.42;3.65;;;;;;;3.55;79.59;99459.45;1792208;78;22596;-80
2022/01/06 02:40:19;;;;;;;8.38;4.33;;;;;;;3.58;79.57;99457.35;1792380;79;21054;-79
2022/01/06 02:42:50;;;;;;;6.85;4.40;;;;;;;3.59;79.62;99463.91;1792455;79;21628;-79
2022/01/06 02:45:17;;;;;;;6.17;4.20;;;;;;;3.62;79.62;99477.03;1792279;79;21333;-79
2022/01/06 02:47:47;;;;;;;5.80;4.03;;;;;;;3.63;79.64;99487.02;1791727;78;21069;-79
2022/01/06 02:50:14;;;;;;;4.65;4.15;;;;;;;3.63;79.63;99496.12;1792042;78;22436;-79
2022/01/06 02:52:40;;;;;;;4.70;3.45;;;;;;;3.57;79.64;99501.13;1792087;80;21038;-79
2022/01/06 02:55:09;;;;;;;3.30;3.00;;;;;;;3.53;79.90;99522.65;1792247;79;22315;-79
2022/01/06 02:57:36;;;;;;;4.42;2.40;;;;;;;3.38;79.94;99513.91;1792405;80;21662;-80
2022/01/06 03:00:10;;;;;;;4.20;2.33;;;;;;;3.20;79.87;99528.49;1792164;79;21066;-80
2022/01/06 03:02:38;;;;;;;3.37;2.30;;;;;;;3.02;80.25;99529.63;1792575;78;21734;-79
2022/01/06 03:05:05;;;;;;;2.33;1.92;;;;;;;2.92;80.68;99534.01;1792199;80;21050;-79
2022/01/06 03:07:32;;;;;;;4.00;1.75;;;;;;;2.84;80.83;99542.83;1792408;78;21062;-79
2022/01/06 03:10:03;;;;;;;3.55;2.00;;;;;;;2.80;80.89;99542.68;1792287;79;21600;-79
2022/01/06 03:12:34;;;;;;;2.65;1.85;;;;;;;2.78;80.88;99559.51;1792615;78;21481;-79
2022/01/06 03:14:57;;;;;;;1.70;1.57;;;;;;;2.75;80.72;99565.87;1792019;78;21782;-79
2022/01/06 03:17:24;;;;;;;2.42;1.67;;;;;;;2.70;80.62;99575.20;1792295;78;21053;-79
2022/01/06 03:19:50;;;;;;;2.52;1.40;;;;;;;2.60;80.63;99579.17;1792363;80;21113;-79
2022/01/06 03:22:17;;;;;;;7.80;1.80;;;;;;;2.55;80.69;99570.73;1792233;79;21023;-79
2022/01/06 03:24:44;;;;;;;2.67;1.70;;;;;;;2.52;80.76;99582.78;1792149;79;21128;-79
2022/01/06 03:27:13;;;;;;;1.95;1.55;;;;;;;2.45;80.71;99575.58;1791916;79;21779;-79
2022/01/06 03:29:40;;;;;;;1.95;1.20;;;;;;;2.38;80.64;99574.86;1792041;78;21450;-79
2022/01/06 03:32:07;;;;;;;2.62;1.45;;;;;;;2.32;80.57;99576.81;1788148;78;21066;-79
2022/01/06 03:34:37;;;;;;;2.77;1.47;;;;;;;2.24;80.39;99589.04;1785928;79;21067;-80
2022/01/06 03:37:06;;;;;;;2.50;1.25;;;;;;;2.11;80.18;99584.64;1785617;78;21058;-79
2022/01/06 03:39:33;;;;;;;2.17;1.07;;;;;;;1.92;80.18;99570.47;1786455;80;21819;-79
2022/01/06 03:41:59;;;;;;;2.55;1.32;;;;;;;1.93;80.37;99591.30;1786388;78;21544;-79
2022/01/06 03:44:26;;;;;;;3.12;1.70;;;;;;;1.93;80.66;99595.19;1786404;80;21047;-79
2022/01/06 03:46:56;;;;;;;2.08;1.20;;;;;;;2.00;80.93;99604.52;1786544;78;21106;-78
2022/01/06 03:49:23;;;;;;;3.60;1.32;;;;;;;2.02;80.77;99609.34;1766047;80;21098;-78
2022/01/06 03:51:50;;;;;;;2.83;1.20;;;;;;;1.98;80.53;99612.23;1786535;79;21710;-78
2022/01/06 03:54:16;;;;;;;2.30;1.25;;;;;;;1.91;80.42;99617.56;1786591;80;21081;-79
2022/01/06 03:56:43;;;;;;;3.33;1.30;;;;;;;1.86;80.54;99616.90;1786735;78;21062;-79
2022/01/06 03:59:12;;;;;;;2.87;1.47;;;;;;;1.84;80.60;99619.46;1786650;78;21054;-78
2022/01/06 04:01:41;;;;;;;3.30;1.30;;;;;;;1.83;80.70;99621.98;1786481;79;21385;-79
2022/01/06 04:04:07;;;;;;;2.47;1.10;;;;;;;1.88;80.88;99630.85;1786269;79;22624;-79
2022/01/06 04:06:33;;;;;;;1.77;1.25;;;;;;;1.93;80.86;99628.92;1786265;78;21068;-78
2022/01/06 04:09:00;;;;;;;3.10;1.17;;;;;;;1.96;80.69;99637.66;1786295;80;21055;-78
2022/01/06 04:11:27;;;;;;;2.67;1.15;;;;;;;1.93;80.50;99648.77;1786149;78;21046;-79
2022/01/06 04:13:54;;;;;;;2.15;0.90;;;;;;;1.85;80.24;99651.47;1786317;80;21097;-78
2022/01/06 04:16:20;;;;;;;3.17;1.37;;;;;;;1.77;80.12;99655.05;1786196;79;21774;-78
2022/01/06 04:18:50;;;;;;;3.87;1.20;;;;;;;1.70;80.05;99662.96;1785727;79;21065;-79
2022/01/06 04:21:17;;;;;;;2.02;1.37;;;;;;;1.60;79.94;99667.30;1786293;78;21046;-79
2022/01/06 04:23:43;;;;;;;4.20;1.22;;;;;;;1.51;79.94;99673.37;1786155;79;21037;-78
2022/01/06 04:26:10;;;;;;;2.42;1.22;;;;;;;1.44;80.05;99678.69;1786232;78;21042;-79
2022/01/06 04:28:37;;;;;;;2.22;1.22;;;;;;;1.40;80.17;99688.87;1786162;80;21728;-79
2022/01/06 04:31:04;;;;;;;3.40;1.35;;;;;;;1.39;80.23;99696.16;1785932;79;21117;-79
2022/01/06 04:33:33;;;;;;;3.00;1.30;;;;;;;1.39;80.33;99698.75;1786300;79;21066;-78
2022/01/06 04:36:03;;;;;;;3.17;1.57;;;;;;;1.47;80.59;99694.81;1786464;78;21015;-79
2022/01/06 04:38:28;;;;;;;1.57;1.00;;;;;;;1.59;80.68;99698.34;1785729;79;21155;-78
2022/01/06 04:40:56;;;;;;;3.12;1.40;;;;;;;1.70;80.70;99701.88;1786148;78;22601;-78
2022/01/06 04:43:23;;;;;;;3.87;1.35;;;;;;;1.80;80.62;99704.45;1786179;79;21059;-78
2022/01/06 04:45:50;;;;;;;2.52;1.30;;;;;;;1.91;80.58;99716.59;1786248;80;21059;-78
2022/01/06 04:48:17;;;;;;;3.62;1.40;;;;;;;2.00;80.57;99719.59;1786175;80;21321;-78
2022/01/06 04:50:43;;;;;;;2.00;1.05;;;;;;;2.01;80.37;99720.47;1786221;80;21151;-78
2022/01/06 04:53:10;;;;;;;3.62;1.30;;;;;;;1.79;80.37;99714.38;1786288;79;21820;-80
2022/01/06 04:55:37;;;;;;;2.37;0.88;;;;;;;1.71;80.37;99728.31;1786112;78;21078;-80
2022/01/06 04:58:04;;;;;;;3.08;0.80;;;;;;;1.63;80.71;99732.25;1786277;78;21130;-79
2022/01/06 05:00:30;;;;;;;1.85;0.62;;;;;;;1.46;80.98;99732.80;1786440;79;21549;-79
2022/01/06 05:02:57;;;;;;;1.95;0.80;;;;;;;1.38;81.50;99735.47;1786450;78;21062;-79
2022/01/06 05:05:24;;;;;;;2.77;1.10;;;;;;;1.35;81.82;99739.20;1786148;78;21743;-78
2022/01/06 05:07:50;;;;;;;2.40;1.12;;;;;;;1.29;82.21;99737.64;1786054;79;21074;-79
2022/01/06 05:10:17;;;;;;;1.87;0.93;;;;;;;1.18;82.41;99742.74;1786128;78;21058;-79
2022/01/06 05:12:47;;;;;;;2.65;0.65;;;;;;;1.11;82.77;99749.36;1786226;78;22073;-79
2022/01/06 05:15:14;;;;;;;1.95;1.00;;;;;;;1.07;83.11;99751.30;1766701;80;21125;-78
2022/01/06 05:17:41;;;;;;;1.45;0.90;;;;;;;1.09;83.48;99756.15;1792529;79;21735;-80
2022/01/06 05:20:09;;;;;;;2.87;1.00;;;;;;;1.08;83.37;99759.16;1786282;79;21074;-79
2022/01/06 05:22:42;;;;;;;3.70;1.10;;;;;;;1.06;83.45;99760.80;1786512;78;21062;-79
2022/01/06 05:25:05;;;;;;;2.70;1.10;;;;;;;1.08;83.75;99760.45;1785581;78;21078;-79
2022/01/06 05:27:32;;;;;;;4.03;1.27;;;;;;;1.14;83.90;99771.52;1786474;79;21050;-78
2022/01/06 05:29:59;;;;;;;1.70;1.40;;;;;;;1.19;83.97;99773.92;1786268;78;22408;-79
2022/01/06 05:32:25;;;;;;;1.80;1.10;;;;;;;1.25;83.79;99776.80;1785893;78;21085;-79
2022/01/06 05:34:52;;;;;;;3.65;1.05;;;;;;;1.30;83.69;99782.20;1785893;78;21592;-80
2022/01/06 05:37:19;;;;;;;1.25;0.98;;;;;;;1.35;83.88;99791.06;1786200;80;21114;-79
2022/01/06 05:39:45;;;;;;;4.83;1.05;;;;;;;1.42;83.73;99793.55;1786362;78;21102;-79
2022/01/06 05:42:13;;;;;;;2.37;1.10;;;;;;;1.45;83.59;99800.18;1786209;80;21381;-78
2022/01/06 05:44:44;;;;;;;2.77;1.17;;;;;;;1.47;84.14;99812.80;1786297;79;22462;-79
2022/01/06 05:47:10;;;;;;;2.05;1.40;;;;;;;1.35;84.88;99819.58;1786087;78;21050;-79
2022/01/06 05:49:37;;;;;;;3.85;1.75;;;;;;;1.22;85.20;99825.92;1786134;78;21023;-78
2022/01/06 05:52:04;;;;;;;1.65;1.52;;;;;;;1.16;85.62;99830.41;1786069;79;21125;-80
2022/01/06 05:54:31;;;;;;;2.45;1.50;;;;;;;1.11;85.67;99833.59;1786225;78;21749;-79
2022/01/06 05:56:58;;;;;;;3.80;1.70;;;;;;;1.09;85.78;99835.20;1786009;80;21066;-79
2022/01/06 05:59:24;;;;;;;3.17;1.60;;;;;;;1.06;85.71;99838.54;1786220;78;21081;-79
2022/01/06 06:01:51;;;;;;;4.25;1.55;;;;;;;1.00;85.62;99840.84;1766548;78;21616;-79
2022/01/06 06:04:18;;;;;;;3.05;1.55;;;;;;;0.97;85.75;99854.52;1786312;79;21133;-79
2022/01/06 06:06:44;;;;;;;1.15;1.00;;;;;;;0.92;85.63;99857.31;1786113;78;21748;-79
2022/01/06 06:09:11;;;;;;;1.45;1.10;;;;;;;0.91;85.77;99862.00;1785989;78;21676;-79
2022/01/06 06:11:39;;;;;;;1.85;1.10;;;;;;;0.89;85.91;99871.41;1785641;78;21039;-79
2022/01/06 06:14:06;;;;;;;3.58;1.40;;;;;;;0.89;85.71;99871.41;1786151;80;21544;-79
2022/01/06 06:16:33;;;;;;;2.83;1.02;;;;;;;0.90;85.78;99880.97;1786238;78;21141;-78
2022/01/06 06:18:59;;;;;;;1.55;1.25;;;;;;;0.93;85.74;99882.81;1786226;78;21761;-79
2022/01/06 06:21:26;;;;;;;2.65;1.30;;;;;;;0.91;85.13;99885.32;1786158;79;21038;-78
2022/01/06 06:23:53;;;;;;;3.27;1.07;;;;;;;0.91;84.98;99896.10;1786178;78;21619;-79
2022/01/06 06:26:19;;;;;;;3.02;1.27;;;;;;;0.87;84.60;99898.95;1786155;79;21127;-79
2022/01/06 06:28:46;;;;;;;1.75;1.10;;;;;;;0.86;84.62;99897.15;1786165;78;21046;-79
2022/01/06 06:31:13;;;;;;;1.90;1.10;;;;;;;0.84;84.74;99913.03;1786122;78;22537;-78
2022/01/06 06:33:39;;;;;;;1.95;1.10;;;;;;;0.79;87.74;99923.59;1790918;78;21047;-79
2022/01/06 06:36:06;;;;;;;3.17;1.25;;;;;;;0.75;88.38;99928.10;1792393;78;21066;-79
2022/01/06 06:38:33;;;;;;;2.70;1.37;;;;;;;0.70;88.38;99933.06;1792155;78;21605;-79
2022/01/06 06:41:00;;;;;;;3.20;1.37;;;;;;;0.62;87.60;99936.06;1792225;79;21062;-78
2022/01/06 06:43:27;;;;;;;4.30;1.90;;;;;;;0.56;87.32;99940.14;1792243;80;21693;-79
2022/01/06 06:45:53;;;;;;;3.58;1.60;;;;;;;0.56;87.20;99948.28;1791985;80;20991;-79
2022/01/06 06:48:22;;;;;;;4.37;1.98;;;;;;;0.56;86.25;99959.56;1791907;78;21061;-78
2022/01/06 06:50:48;;;;;;;3.42;1.90;;;;;;;0.53;85.63;99961.98;1791925;79;21050;-78
2022/01/06 06:53:15;;;;;;;3.20;1.62;;;;;;;0.50;85.31;99964.81;1792209;79;21587;-79
2022/01/06 06:55:42;;;;;;;1.75;1.47;;;;;;;0.46;84.90;99978.41;1792309;78;21679;-78
2022/01/06 06:58:09;;;;;;;3.83;1.60;;;;;;;0.41;84.81;99965.20;1792083;78;21195;-80
2022/01/06 07:00:35;;;;;;;2.85;1.57;;;;;;;0.37;84.59;99970.62;1792244;78;21561;-79
2022/01/06 07:03:02;;;;;;;3.85;1.57;;;;;;;0.37;84.56;99983.98;1752574;81;21467;-79
2022/01/06 07:05:29;;;;;;;2.47;1.75;;;;;;;0.32;84.30;99990.22;1792225;78;21018;-79
2022/01/06 07:07:56;;;;;;;4.62;1.50;;;;;;;0.32;84.35;99997.98;1792162;78;21938;-78
2022/01/06 07:10:22;;;;;;;3.08;1.57;;;;;;;0.28;84.06;100006.78;1792056;78;21789;-79
2022/01/06 07:12:49;;;;;;;4.72;1.87;;;;;;;0.20;83.95;100025.78;1792114;78;21295;-77
2022/01/06 07:15:17;;;;;;;3.45;1.57;;;;;;;0.12;83.87;100026.66;1790698;78;21038;-77
2022/01/06 07:17:47;;;;;;;2.47;1.52;;;;;;;0.09;83.94;100026.89;1792030;78;21097;-77
2022/01/06 07:20:12;;;;;;;2.42;1.50;;;;;;;0.06;84.04;100035.80;1791615;78;22524;-77
2022/01/06 07:22:39;;;;;;;5.28;1.50;;;;;;;0.07;84.21;100042.73;1792331;78;21038;-77
2022/01/06 07:25:09;;;;;;;2.55;1.67;;;;;;;0.09;84.15;100054.94;1792293;78;21085;-77
2022/01/06 07:27:35;;;;;;;3.67;1.40;;;;;;;0.07;84.12;100057.84;1748599;80;21077;-76
2022/01/06 07:30:04;;;;;;;2.42;1.40;;;;;;;0.08;84.23;100064.83;1792112;80;21707;-76
2022/01/06 07:32:31;;;;;;;3.42;1.42;;;;;;;0.13;84.28;100068.94;1790537;78;21748;-77
2022/01/06 07:34:57;;;;;;;2.90;1.35;;;;;;;0.16;84.20;100080.77;1785907;78;21639;-77
2022/01/06 07:37:24;;;;;;;1.75;1.22;;;;;;;0.16;84.05;100085.95;1785425;78;21399;-77
2022/01/06 07:39:51;;;;;;;5.22;1.67;;;;;;;0.13;83.69;100089.64;1786133;78;21014;-77
2022/01/06 07:42:18;;;;;;;1.40;1.00;;;;;;;0.05;83.46;100094.39;1785739;78;21038;-77
2022/01/06 07:44:47;;;;;;;2.25;1.47;;;;;;;0.04;83.50;100103.36;1786024;78;21834;-78
2022/01/06 07:47:14;;;;;;;1.72;1.20;;;;;;;0.05;83.44;100110.33;1785931;78;21872;-78
2022/01/06 07:49:43;;;;;;;2.10;1.25;;;;;;;0.05;83.25;100111.22;1762447;79;21099;-76
2022/01/06 07:52:11;;;;;;;4.40;1.30;;;;;;;0.02;83.05;100117.53;1759946;80;21096;-76
2022/01/06 07:54:41;;;;;;;3.10;1.50;;;;;;;-0.06;82.83;100129.12;1784506;78;21045;-77
2022/01/06 07:57:08;;;;;;;2.25;1.35;;;;;;;-0.14;82.96;100132.97;1761576;80;22210;-77
2022/01/06 07:59:35;;;;;;;3.33;1.32;;;;;;;-0.21;83.50;100141.68;1790099;79;21060;-77
2022/01/06 08:02:02;;;;;;;4.42;1.72;;;;;;;-0.20;83.65;100130.92;1767356;81;21108;-77
2022/01/06 08:04:28;;;;;;;1.10;1.00;;;;;;;-0.17;83.46;100131.48;1767558;80;21610;-77
2022/01/06 08:06:58;;;;;;;2.77;1.60;;;;;;;-0.18;83.31;100137.07;1760904;80;21084;-77
2022/01/06 08:09:24;;;;;;;2.58;1.57;;;;;;;-0.16;83.06;100138.05;1761098;80;21753;-77
2022/01/06 08:11:51;;;;;;;3.25;1.40;;;;;;;-0.15;82.83;100141.52;1789129;80;21074;-76
2022/01/06 08:14:18;;;;;;;2.85;1.67;;;;;;;-0.12;82.91;100139.13;1767676;79;21291;-76
2022/01/06 08:16:48;;;;;;;3.35;1.40;;;;;;;-0.07;82.78;100141.58;1736519;81;20991;-78
2022/01/06 08:19:17;;;;;;;5.97;1.60;;;;;;;0.01;82.91;100148.08;1748436;79;21530;-79
2022/01/06 08:21:44;;;;;;;4.28;1.90;;;;;;;0.12;83.08;100154.75;1767300;80;21777;-79
2022/01/06 08:24:15;;;;;;;2.40;1.60;;;;;;;0.23;83.00;100162.25;1767457;81;21073;-83
2022/01/06 08:26:52;;;;;;;3.87;1.60;;;;;;;0.26;82.55;100164.58;1725417;81;21102;-85
2022/01/06 08:29:19;;;;;;;3.77;1.72;;;;;;;0.26;82.06;100166.29;1613995;87;21245;-85
2022/01/06 08:31:46;;;;;;;4.90;1.95;;;;;;;0.28;82.09;100164.67;1636425;86;21125;-83
2022/01/06 08:34:14;;;;;;;3.72;1.90;;;;;;;0.30;81.86;100171.74;1607220;87;21134;-81
2022/01/06 08:36:44;;;;;;;3.33;2.20;;;;;;;0.27;81.51;100173.27;1628517;87;21136;-84
2022/01/06 08:39:11;;;;;;;4.42;1.80;;;;;;;0.21;81.31;100176.77;1628886;87;21649;-78
2022/01/06 08:41:37;;;;;;;5.85;1.67;;;;;;;0.18;81.27;100180.09;1628941;87;21178;-79
2022/01/06 08:44:08;;;;;;;3.42;1.62;;;;;;;0.15;80.99;100185.08;1629086;87;21157;-79
2022/01/06 08:46:33;;;;;;;4.00;1.85;;;;;;;0.10;80.81;100191.71;1628299;87;21802;-79
2022/01/06 08:49:06;;;;;;;3.98;1.90;;;;;;;0.08;80.86;100190.73;1628522;86;21644;-79
2022/01/06 08:51:33;;;;;;;4.95;2.55;;;;;;;0.07;80.92;100201.47;1628845;86;21412;-79
2022/01/06 08:54:00;;;;;;;3.37;2.20;;;;;;;0.07;80.93;100201.47;1628508;87;21165;-79
2022/01/06 08:56:27;;;;;;;5.87;2.62;;;;;;;0.08;80.97;100219.20;1628502;87;21122;-79
2022/01/06 08:58:54;;;;;;;3.72;2.02;;;;;;;0.03;80.76;100220.20;1628402;86;21724;-80
2022/01/06 09:01:21;;;;;;;6.60;2.40;;;;;;;0.03;80.55;100225.38;1628404;87;21154;-79
2022/01/06 09:03:48;;;;;;;3.55;1.98;;;;;;;-0.01;80.48;100228.60;1646995;84;21616;-79
2022/01/06 09:06:16;;;;;;;4.65;2.33;;;;;;;-0.01;80.44;100229.89;1711837;80;21059;-73
2022/01/06 09:08:42;;;;;;;5.80;2.50;;;;;;;-0.01;80.42;100228.60;1780414;80;21062;-77
2022/01/06 09:11:09;;;;;;;4.20;2.30;;;;;;;-0.03;80.21;100239.27;1780163;80;21744;-82
2022/01/06 09:13:36;;;;;;;6.95;2.65;;;;;;;-0.09;80.04;100246.67;1780419;80;21479;-82
2022/01/06 09:16:02;;;;;;;5.05;2.72;;;;;;;-0.15;79.95;100244.98;1780812;80;21586;-82
2022/01/06 09:18:29;;;;;;;3.20;2.20;;;;;;;-0.18;79.87;100255.17;1780924;80;21589;-75
2022/01/06 09:20:56;;;;;;;6.40;2.27;;;;;;;-0.15;79.90;100256.63;1780441;80;21078;-74
2022/01/06 09:23:23;;;;;;;3.87;2.25;;;;;;;-0.06;79.73;100261.95;1780218;80;21743;-76
2022/01/06 09:25:50;;;;;;;3.92;2.42;;;;;;;0.04;79.51;100276.34;1780306;80;21652;-78
2022/01/06 09:28:16;;;;;;;3.98;2.12;;;;;;;0.14;79.25;100288.13;1780318;80;21102;-75
2022/01/06 09:30:43;;;;;;;6.45;3.27;;;;;;;0.30;79.44;100280.47;1780314;79;21062;-80
2022/01/06 09:33:09;;;;;;;4.25;2.27;;;;;;;0.45;79.21;100279.55;1783216;78;21062;-77
2022/01/06 09:35:36;;;;;;;3.00;2.17;;;;;;;0.57;79.23;100281.16;1792039;80;22139;-81
2022/01/06 09:38:03;;;;;;;3.22;2.08;;;;;;;0.66;79.05;100296.34;1791796;78;21070;-79
2022/01/06 09:40:30;;;;;;;3.40;1.98;;;;;;;0.64;78.46;100278.91;1791810;80;21346;-80
2022/01/06 09:42:57;;;;;;;7.92;2.45;;;;;;;0.64;78.43;100286.30;1791895;78;21579;-80
2022/01/06 09:45:32;;;;;;;3.75;1.70;;;;;;;0.64;78.43;100291.48;1791923;80;21218;-80
2022/01/06 09:47:58;;;;;;;3.05;2.02;;;;;;;0.67;78.36;100292.92;1791890;78;21988;-85
2022/01/06 09:50:25;;;;;;;3.47;2.10;;;;;;;0.70;78.40;100284.05;1792097;80;21046;-81
2022/01/06 09:52:52;;;;;;;4.03;2.45;;;;;;;0.71;78.19;100286.22;1792148;78;21560;-85
2022/01/06 09:55:19;;;;;;;4.85;2.70;;;;;;;0.68;77.93;100297.31;1792248;80;21694;-78
2022/01/06 09:57:59;;;;;;;3.40;2.40;;;;;;;0.65;77.81;100300.13;1792078;80;21062;-79
2022/01/06 10:00:27;;;;;;;4.45;2.70;;;;;;;0.61;77.76;100300.36;1791074;78;21765;-80
2022/01/06 10:02:55;;;;;;;5.87;3.00;;;;;;;0.59;77.61;100296.78;1792275;80;21101;-80
2022/01/06 10:05:23;;;;;;;4.72;3.08;;;;;;;0.63;77.87;100289.68;1792361;80;22285;-76
2022/01/06 10:07:50;;;;;;;13.35;5.62;;;;;;;0.71;77.74;100286.22;1792469;79;21073;-78
2022/01/06 10:10:16;;;;;;;10.82;4.62;;;;;;;0.75;77.42;100296.87;1792678;80;21058;-82
2022/01/06 10:12:43;;;;;;;6.17;3.40;;;;;;;0.70;77.24;100296.12;1792990;80;21745;-81
2022/01/06 10:15:21;;;;;;;6.72;2.87;;;;;;;0.63;77.12;100294.86;1764344;80;21125;-85
2022/01/06 10:17:48;;;;;;;5.87;3.37;;;;;;;0.53;76.80;100301.63;1793428;80;21078;-80
2022/01/06 10:20:18;;;;;;;5.60;3.00;;;;;;;0.40;76.92;100290.07;1793174;78;21073;-80
2022/01/06 10:22:56;;;;;;;4.80;2.77;;;;;;;0.50;77.10;100307.91;1793027;78;21073;-82
2022/01/06 10:25:26;;;;;;;4.90;3.00;;;;;;;0.62;77.34;100308.63;1793097;80;21822;-84
2022/01/06 10:27:56;;;;;;;5.80;2.77;;;;;;;0.81;77.41;100300.59;1792539;80;21603;-84
2022/01/06 10:30:29;;;;;;;5.83;3.35;;;;;;;0.94;77.25;100311.75;1792434;78;21066;-83
2022/01/06 10:32:59;;;;;;;6.92;3.75;;;;;;;0.97;77.11;100318.37;1792207;78;21023;-83
2022/01/06 10:35:25;;;;;;;8.48;3.50;;;;;;;1.03;77.13;100338.98;1792682;78;21105;-83
2022/01/06 10:37:52;;;;;;;8.40;4.00;;;;;;;1.06;76.94;100336.16;1792665;80;21193;-82
2022/01/06 10:40:27;;;;;;;9.40;4.12;;;;;;;0.96;76.69;100326.09;1762612;80;21600;-84
2022/01/06 10:42:57;;;;;;;6.60;3.50;;;;;;;1.03;76.62;100342.45;1792364;80;21140;-83
2022/01/06 10:45:27;;;;;;;5.70;3.08;;;;;;;0.96;76.25;100351.59;1792151;79;21603;-83
2022/01/06 10:47:56;;;;;;;8.08;3.95;;;;;;;0.86;76.26;100353.57;1793164;80;21567;-82
2022/01/06 10:50:27;;;;;;;6.75;3.58;;;;;;;0.80;76.42;100363.17;1792786;80;21753;-84
2022/01/06 10:53:00;;;;;;;6.62;3.60;;;;;;;0.80;76.53;100358.41;1792502;79;21063;-83
2022/01/06 10:55:29;;;;;;;7.40;3.80;;;;;;;0.63;76.61;100341.48;1792678;80;21175;-83
2022/01/06 10:58:05;;;;;;;6.58;3.27;;;;;;;0.95;77.09;100367.05;1792806;80;21066;-82
2022/01/06 11:00:36;;;;;;;6.95;3.22;;;;;;;1.16;77.19;100367.38;1792904;80;21110;-84
2022/01/06 11:03:17;;;;;;;6.05;2.90;;;;;;;1.36;77.27;100384.94;1792612;78;21768;-84
2022/01/06 11:05:48;;;;;;;4.15;2.70;;;;;;;1.45;76.78;100381.09;1789483;79;21089;-84
2022/01/06 11:08:17;;;;;;;6.12;2.80;;;;;;;1.46;76.71;100386.75;1792553;80;21074;-83
2022/01/06 11:10:49;;;;;;;5.33;2.70;;;;;;;1.44;76.46;100387.08;1792365;80;21062;-84
2022/01/06 11:13:17;;;;;;;7.58;3.37;;;;;;;1.37;76.59;100392.34;1792432;79;21058;-84
2022/01/06 11:15:44;;;;;;;6.95;3.37;;;;;;;1.37;76.98;100391.05;1792697;79;22428;-84
2022/01/06 11:18:12;;;;;;;5.95;3.15;;;;;;;1.41;77.00;100397.27;1792719;80;21075;-84
2022/01/06 11:20:39;;;;;;;5.25;2.77;;;;;;;1.42;77.00;100397.77;1791777;79;21159;-84
2022/01/06 11:23:06;;;;;;;7.97;3.50;;;;;;;1.42;77.03;100396.47;1792403;78;21081;-84
2022/01/06 11:25:38;;;;;;;7.45;3.40;;;;;;;1.46;77.01;100401.02;1792706;80;21078;-83
2022/01/06 11:28:08;;;;;;;6.22;3.33;;;;;;;1.46;76.95;100403.61;1792271;80;21658;-83
2022/01/06 11:30:51;;;;;;;7.72;3.25;;;;;;;1.43;76.74;100403.46;1792426;80;21860;-83
2022/01/06 11:33:17;;;;;;;6.65;3.37;;;;;;;1.34;76.65;100411.61;1791815;78;21101;-83
2022/01/06 11:35:56;;;;;;;6.33;3.17;;;;;;;1.32;76.67;100411.52;1774953;80;21237;-84
2022/01/06 11:38:27;;;;;;;4.20;2.30;;;;;;;1.29;76.53;100419.11;1775874;80;21715;-83
2022/01/06 11:41:12;;;;;;;4.58;2.85;;;;;;;1.25;76.43;100421.45;1775525;80;22597;-84
2022/01/06 11:43:43;;;;;;;7.10;3.12;;;;;;;1.17;76.24;100424.91;1775301;80;21067;-83
2022/01/06 11:46:10;;;;;;;5.47;3.00;;;;;;;1.15;76.31;100434.30;1775480;80;21078;-83